Time;durP1;ratioP1;P1;durP2;ratioP2;P2;SDS_P1;SDS_P2;PMS_P1;PMS_P2;Temp;Humidity;BMP_temperature;BMP_pressure;BME280_temperature;BME280_humidity;BME280_pressure;Samples;Min_cycle;Max_cycle;Signal;HPM_P1;HPM_P2
2022/08/02 00:02:48;;;;;;;4.40;3.30;;;19.70;1.00;;;;;;6284157;28;20237;-56
2022/08/02 00:05:52;;;;;;;3.27;3.10;;;19.60;1.00;;;;;;6302646;28;20247;-56
2022/08/02 00:08:55;;;;;;;3.50;3.30;;;19.60;1.00;;;;;;6312102;28;20732;-55
2022/08/02 00:11:58;;;;;;;3.20;3.10;;;19.60;1.00;;;;;;6286884;28;20233;-56
2022/08/02 00:15:02;;;;;;;3.33;3.03;;;19.50;1.00;;;;;;6257996;28;20233;-56
2022/08/02 00:18:05;;;;;;;2.83;2.67;;;19.50;1.00;;;;;;6286390;28;20313;-55
2022/08/02 00:21:09;;;;;;;2.93;2.80;;;19.50;1.00;;;;;;6262055;28;20712;-55
2022/08/02 00:24:13;;;;;;;3.33;3.07;;;19.50;1.00;;;;;;6277166;28;20233;-57
2022/08/02 00:27:32;;;;;;;4.07;2.83;;;19.50;1.00;;;;;;6286223;28;20244;-56
2022/08/02 00:30:35;;;;;;;4.00;2.97;;;19.50;1.00;;;;;;6261617;28;20250;-56
2022/08/02 00:33:38;;;;;;;4.53;2.50;;;19.50;1.00;;;;;;6284690;28;20289;-56
2022/08/02 00:37:02;;;;;;;3.30;3.00;;;19.50;1.00;;;;;;6278639;28;20366;-54
2022/08/02 00:40:06;;;;;;;2.70;2.60;;;19.60;1.00;;;;;;6253277;28;20317;-56
2022/08/02 00:43:11;;;;;;;3.63;2.80;;;19.60;1.00;;;;;;6261977;28;20678;-53
2022/08/02 00:46:15;;;;;;;4.27;3.00;;;19.60;1.00;;;;;;6278238;28;20727;-55
2022/08/02 00:49:18;;;;;;;4.67;3.20;;;19.70;1.00;;;;;;6265919;28;20238;-54
2022/08/02 00:52:24;;;;;;;3.40;3.10;;;19.70;1.00;;;;;;6264417;28;20595;-55
2022/08/02 00:55:28;;;;;;;2.70;2.50;;;19.60;1.00;;;;;;6288383;28;20283;-54
2022/08/02 00:58:33;;;;;;;6.10;3.20;;;19.70;1.00;;;;;;6261949;28;20242;-56
2022/08/02 01:01:38;;;;;;;5.90;3.40;;;19.70;1.00;;;;;;6260978;28;20427;-55
2022/08/02 01:05:00;;;;;;;4.10;2.93;;;19.60;1.00;;;;;;6294736;28;20721;-55
2022/08/02 01:08:04;;;;;;;5.80;3.03;;;19.60;1.00;;;;;;6302275;28;20233;-56
2022/08/02 01:11:07;;;;;;;5.17;3.40;;;19.60;1.00;;;;;;6310594;28;20991;-55
2022/08/02 01:14:13;;;;;;;3.87;3.00;;;19.50;1.00;;;;;;6284827;28;20531;-56
2022/08/02 01:17:22;;;;;;;3.03;2.83;;;19.50;1.00;;;;;;6234990;28;20695;-56
2022/08/02 01:21:09;;;;;;;7.03;2.90;;;19.50;1.00;;;;;;6283639;28;20233;-54
2022/08/02 01:24:24;;;;;;;3.53;2.97;;;19.40;1.00;;;;;;6278656;28;20324;-56
2022/08/02 01:27:42;;;;;;;3.47;3.10;;;19.40;1.00;;;;;;6284606;28;20303;-54
2022/08/02 01:30:49;;;;;;;5.10;2.80;;;19.40;1.00;;;;;;6276972;28;20321;-55
2022/08/02 01:34:04;;;;;;;2.93;2.73;;;19.40;1.00;;;;;;6287486;28;20243;-55
2022/08/02 01:37:11;;;;;;;3.63;3.07;;;19.40;1.00;;;;;;6270641;28;20251;-55
2022/08/02 01:40:21;;;;;;;4.33;2.70;;;19.40;1.00;;;;;;6276758;28;20246;-54
2022/08/02 01:43:28;;;;;;;4.10;2.97;;;19.40;1.00;;;;;;6260834;28;20779;-56
2022/08/02 01:46:33;;;;;;;3.13;2.90;;;19.40;1.00;;;;;;6258273;28;20364;-54
2022/08/02 01:49:39;;;;;;;4.00;3.10;;;19.40;1.00;;;;;;6259880;28;20331;-56
2022/08/02 01:52:48;;;;;;;6.67;3.33;;;19.40;1.00;;;;;;6263957;28;20226;-55
2022/08/02 01:55:58;;;;;;;6.97;3.23;;;19.30;1.00;;;;;;6284328;28;20619;-56
2022/08/02 01:59:02;;;;;;;6.30;3.40;;;19.40;1.00;;;;;;6281586;28;20466;-54
2022/08/02 02:02:08;;;;;;;5.03;3.07;;;19.40;1.00;;;;;;6270555;28;20320;-56
2022/08/02 02:05:14;;;;;;;4.37;3.10;;;19.40;1.00;;;;;;6308112;28;20713;-56
2022/08/02 02:08:23;;;;;;;3.87;3.50;;;19.40;1.00;;;;;;6308533;28;20595;-54
2022/08/02 02:11:29;;;;;;;3.33;3.13;;;19.30;1.00;;;;;;6282774;28;20429;-56
2022/08/02 02:14:54;;;;;;;3.50;2.70;;;19.30;1.00;;;;;;6283586;28;20264;-54
2022/08/02 02:18:01;;;;;;;4.50;2.97;;;19.30;1.00;;;;;;6277289;28;20380;-54
2022/08/02 02:21:16;;;;;;;4.43;2.93;;;19.30;1.00;;;;;;6259836;28;20299;-56
2022/08/02 02:24:19;;;;;;;5.07;3.07;;;19.30;1.00;;;;;;6274426;28;20229;-55
2022/08/02 02:27:25;;;;;;;4.27;3.03;;;19.20;1.00;;;;;;6266471;28;20257;-54
2022/08/02 02:30:30;;;;;;;4.93;3.20;;;19.20;1.00;;;;;;6258639;28;20276;-56
2022/08/02 02:33:38;;;;;;;4.20;3.03;;;19.20;1.00;;;;;;6279993;28;20236;-55
2022/08/02 02:36:45;;;;;;;3.43;2.83;;;19.20;1.00;;;;;;6279794;28;20720;-54
2022/08/02 02:39:51;;;;;;;3.83;2.90;;;19.20;1.00;;;;;;6281918;28;20280;-56
2022/08/02 02:42:56;;;;;;;5.77;3.67;;;19.10;1.00;;;;;;6282295;28;20320;-54
2022/08/02 02:46:00;;;;;;;4.77;3.10;;;19.10;1.00;;;;;;6281624;28;20263;-56
2022/08/02 02:49:05;;;;;;;3.37;3.10;;;19.10;1.00;;;;;;6274865;28;20255;-54
2022/08/02 02:52:10;;;;;;;4.40;2.93;;;19.00;1.00;;;;;;6284219;28;20653;-54
2022/08/02 02:55:13;;;;;;;3.87;3.10;;;19.00;1.00;;;;;;6278403;28;20593;-55
2022/08/02 02:58:17;;;;;;;3.30;3.00;;;19.00;1.00;;;;;;6277841;28;20237;-55
2022/08/02 03:01:30;;;;;;;6.37;2.97;;;19.00;1.00;;;;;;6282775;28;20359;-55
2022/08/02 03:04:56;;;;;;;3.07;2.87;;;19.00;1.00;;;;;;6280365;28;20229;-56
2022/08/02 03:08:00;;;;;;;4.60;3.00;;;19.10;1.00;;;;;;6257993;28;20245;-56
2022/08/02 03:11:03;;;;;;;3.10;2.80;;;19.00;1.00;;;;;;6264896;28;20383;-56
2022/08/02 03:14:10;;;;;;;3.83;3.37;;;19.00;1.00;;;;;;6272939;28;20241;-55
2022/08/02 03:17:13;;;;;;;5.13;3.07;;;19.10;1.00;;;;;;6230112;28;20453;-55
2022/08/02 03:20:19;;;;;;;5.00;3.40;;;19.00;1.00;;;;;;6258124;28;20397;-55
2022/08/02 03:23:22;;;;;;;6.03;3.57;;;18.90;1.00;;;;;;6268130;28;20233;-56
2022/08/02 03:26:25;;;;;;;6.87;2.77;;;18.80;1.00;;;;;;6282311;28;20316;-56
2022/08/02 03:29:28;;;;;;;4.17;2.67;;;18.80;1.00;;;;;;6281101;28;20750;-55
2022/08/02 03:32:38;;;;;;;7.67;2.87;;;18.80;1.00;;;;;;6262820;28;20505;-55
2022/08/02 03:35:43;;;;;;;3.43;3.17;;;18.70;1.00;;;;;;6297053;28;20809;-56
2022/08/02 03:38:47;;;;;;;3.53;3.10;;;18.70;1.00;;;;;;6284806;28;20787;-55
2022/08/02 03:41:51;;;;;;;3.83;3.00;;;18.60;1.00;;;;;;6298090;28;20282;-55
2022/08/02 03:44:55;;;;;;;4.87;2.43;;;18.60;1.00;;;;;;6281516;28;20393;-55
2022/08/02 03:47:59;;;;;;;6.50;3.20;;;18.60;1.00;;;;;;6294608;28;20370;-54
2022/08/02 03:51:04;;;;;;;3.80;3.40;;;18.50;1.00;;;;;;6282326;28;20320;-55
2022/08/02 03:54:08;;;;;;;2.80;2.60;;;18.40;1.00;;;;;;6291228;28;20225;-53
2022/08/02 03:57:12;;;;;;;4.77;3.03;;;18.40;1.00;;;;;;6280968;28;20229;-56
2022/08/02 04:00:20;;;;;;;6.43;3.03;;;18.40;1.00;;;;;;6289374;28;20232;-56
2022/08/02 04:03:23;;;;;;;6.50;3.33;;;18.30;1.00;;;;;;6289639;28;20540;-54
2022/08/02 04:06:27;;;;;;;4.47;3.30;;;18.30;1.00;;;;;;6282405;28;20265;-55
2022/08/02 04:09:30;;;;;;;3.40;3.10;;;18.30;1.00;;;;;;6290588;28;20269;-56
2022/08/02 04:12:33;;;;;;;6.47;3.23;;;18.40;1.00;;;;;;6287554;28;20600;-54
2022/08/02 04:15:37;;;;;;;3.23;2.87;;;18.50;1.00;;;;;;6281498;28;20221;-56
2022/08/02 04:18:46;;;;;;;5.10;2.87;;;18.50;1.00;;;;;;6280898;28;20790;-55
2022/08/02 04:21:53;;;;;;;5.50;4.17;;;18.60;1.00;;;;;;6287708;28;20324;-54
2022/08/02 04:24:59;;;;;;;4.10;3.40;;;18.60;1.00;;;;;;6272418;28;20634;-55
2022/08/02 04:28:03;;;;;;;5.67;3.07;;;18.70;1.00;;;;;;6295006;28;20578;-54
2022/08/02 04:31:21;;;;;;;4.90;3.10;;;18.70;1.00;;;;;;6282414;28;20311;-54
2022/08/02 04:34:24;;;;;;;6.90;3.20;;;18.80;1.00;;;;;;6284790;28;20230;-56
2022/08/02 04:37:28;;;;;;;7.93;3.20;;;18.80;1.00;;;;;;6293964;28;20238;-56
2022/08/02 04:40:31;;;;;;;6.17;3.13;;;18.80;1.00;;;;;;6286451;28;20249;-55
2022/08/02 04:43:34;;;;;;;5.37;3.10;;;18.80;1.00;;;;;;6282802;28;20230;-56
2022/08/02 04:46:38;;;;;;;3.13;2.97;;;18.80;1.00;;;;;;6273863;28;20332;-55
2022/08/02 04:49:41;;;;;;;6.23;3.30;;;18.80;1.00;;;;;;6275598;28;20745;-54
2022/08/02 04:52:45;;;;;;;4.50;3.47;;;18.90;1.00;;;;;;6297788;28;20239;-55
2022/08/02 04:55:48;;;;;;;7.50;3.70;;;18.90;1.00;;;;;;6289262;28;20229;-55
2022/08/02 04:58:51;;;;;;;3.83;3.33;;;19.00;1.00;;;;;;6281756;28;20312;-55
2022/08/02 05:01:54;;;;;;;4.30;3.03;;;19.00;1.00;;;;;;6296403;28;20715;-56
2022/08/02 05:04:57;;;;;;;7.00;3.30;;;19.00;1.00;;;;;;6285446;28;20237;-55
2022/08/02 05:08:02;;;;;;;4.10;3.17;;;19.00;1.00;;;;;;6283454;28;20228;-54
2022/08/02 05:11:05;;;;;;;5.30;3.60;;;19.10;1.00;;;;;;6265688;28;20471;-54
2022/08/02 05:14:08;;;;;;;5.80;3.77;;;19.10;1.00;;;;;;6282972;28;20646;-56
2022/08/02 05:17:11;;;;;;;4.30;3.53;;;19.30;1.00;;;;;;6282632;28;20238;-55
2022/08/02 05:20:14;;;;;;;3.50;3.20;;;19.30;1.00;;;;;;6278174;28;20237;-54
2022/08/02 05:23:18;;;;;;;4.53;3.50;;;19.40;1.00;;;;;;6277975;28;20252;-54
2022/08/02 05:26:21;;;;;;;8.23;3.47;;;19.50;1.00;;;;;;6289524;28;20364;-54
2022/08/02 05:29:24;;;;;;;5.37;3.50;;;19.50;1.00;;;;;;6287736;28;20362;-59
2022/08/02 05:32:27;;;;;;;3.73;3.47;;;19.50;1.00;;;;;;6285368;28;20367;-55
2022/08/02 05:35:30;;;;;;;6.03;3.67;;;19.60;1.00;;;;;;6289254;28;20324;-56
2022/08/02 05:38:35;;;;;;;5.83;3.10;;;19.70;1.00;;;;;;6280994;28;20230;-54
2022/08/02 05:41:39;;;;;;;8.43;3.90;;;19.80;1.00;;;;;;6282408;28;20725;-55
2022/08/02 05:44:41;;;;;;;3.73;3.13;;;19.80;1.00;;;;;;6283582;28;20268;-54
2022/08/02 05:47:44;;;;;;;7.17;3.73;;;20.10;1.00;;;;;;6279492;28;20314;-55
2022/08/02 05:50:52;;;;;;;8.47;3.43;;;20.40;1.00;;;;;;6284317;28;20237;-56
2022/08/02 05:54:07;;;;;;;5.13;3.70;;;20.70;1.00;;;;;;6284853;28;20245;-55
2022/08/02 05:57:16;;;;;;;4.13;2.90;;;20.90;1.00;;;;;;6287119;28;20309;-55
2022/08/02 06:00:21;;;;;;;5.70;3.30;;;21.20;1.00;;;;;;6287975;28;20716;-55
2022/08/02 06:03:26;;;;;;;3.97;3.60;;;21.50;1.00;;;;;;6275564;28;20324;-56
2022/08/02 06:06:32;;;;;;;4.27;3.27;;;21.80;1.00;;;;;;6278593;28;20233;-56
2022/08/02 06:09:38;;;;;;;6.10;3.67;;;22.00;1.00;;;;;;6276713;28;20328;-55
2022/08/02 06:12:48;;;;;;;7.97;3.20;;;22.30;1.00;;;;;;6274849;28;20320;-56
2022/08/02 06:15:52;;;;;;;5.70;3.27;;;22.40;1.00;;;;;;6283884;28;20308;-57
2022/08/02 06:18:56;;;;;;;8.13;3.40;;;22.50;1.00;;;;;;6286237;28;20696;-55
2022/08/02 06:22:13;;;;;;;5.60;3.17;;;22.80;1.00;;;;;;6285317;28;20312;-56
2022/08/02 06:25:41;;;;;;;5.67;3.30;;;23.10;1.00;;;;;;6284526;28;20233;-58
2022/08/02 06:28:53;;;;;;;9.03;3.90;;;23.40;1.00;;;;;;6284952;28;20981;-56
2022/08/02 06:31:58;;;;;;;5.23;3.30;;;23.40;1.00;;;;;;6293961;28;20531;-54
2022/08/02 06:35:01;;;;;;;5.70;3.93;;;23.60;1.00;;;;;;6290253;28;20309;-55
2022/08/02 06:38:04;;;;;;;5.93;3.77;;;23.70;1.00;;;;;;6281051;28;20598;-56
2022/08/02 06:41:12;;;;;;;8.43;4.00;;;23.50;1.00;;;;;;6284264;28;20238;-55
2022/08/02 06:44:16;;;;;;;4.87;3.57;;;23.50;1.00;;;;;;6282155;28;20253;-56
2022/08/02 06:47:39;;;;;;;7.60;3.20;;;22.90;1.00;;;;;;6281021;28;20583;-54
2022/08/02 06:50:43;;;;;;;5.77;3.63;;;22.70;1.00;;;;;;6280296;28;20280;-55
2022/08/02 06:53:46;;;;;;;7.70;3.63;;;22.80;1.00;;;;;;6283082;28;20631;-57
2022/08/02 06:56:50;;;;;;;10.30;3.50;;;23.10;1.00;;;;;;6278758;28;20261;-56
2022/08/02 06:59:53;;;;;;;9.60;3.53;;;22.90;1.00;;;;;;6282653;28;20551;-56
2022/08/02 07:02:57;;;;;;;4.20;3.40;;;22.90;1.00;;;;;;6276022;28;20448;-54
2022/08/02 07:06:00;;;;;;;8.90;3.67;;;22.80;1.00;;;;;;6289214;28;20343;-55
2022/08/02 07:09:03;;;;;;;5.33;3.73;;;22.90;1.00;;;;;;6285304;28;20287;-55
2022/08/02 07:12:24;;;;;;;6.23;3.47;;;22.90;1.00;;;;;;6269086;28;20376;-54
2022/08/02 07:15:27;;;;;;;6.70;3.30;;;22.90;1.00;;;;;;6279355;28;20320;-54
2022/08/02 07:18:30;;;;;;;5.37;3.10;;;23.10;1.00;;;;;;6285190;28;20237;-55
2022/08/02 07:21:33;;;;;;;5.60;3.70;;;23.30;1.00;;;;;;6278159;28;20279;-55
2022/08/02 07:24:57;;;;;;;5.03;3.27;;;23.40;1.00;;;;;;6275397;28;20775;-55
2022/08/02 07:28:02;;;;;;;7.77;3.67;;;23.50;1.00;;;;;;6272555;28;20233;-55
2022/08/02 07:31:05;;;;;;;4.00;3.00;;;23.40;1.00;;;;;;6276878;28;20316;-56
2022/08/02 07:34:08;;;;;;;4.40;3.53;;;23.30;1.00;;;;;;6283514;28;20324;-55
2022/08/02 07:37:11;;;;;;;5.47;3.23;;;23.20;1.00;;;;;;6277427;28;20753;-56
2022/08/02 07:40:34;;;;;;;7.87;3.13;;;23.10;1.00;;;;;;6272225;28;20291;-55
2022/08/02 07:43:38;;;;;;;3.00;2.73;;;23.30;1.00;;;;;;6267082;28;20237;-54
2022/08/02 07:46:41;;;;;;;7.37;3.10;;;23.30;1.00;;;;;;6280595;28;20229;-56
2022/08/02 07:49:44;;;;;;;5.60;2.90;;;23.30;1.00;;;;;;6284288;28;20494;-54
2022/08/02 07:52:47;;;;;;;4.80;3.10;;;23.40;1.00;;;;;;6279696;28;20248;-55
2022/08/02 07:55:51;;;;;;;5.20;3.07;;;23.50;1.00;;;;;;6277968;28;20257;-56
2022/08/02 07:58:55;;;;;;;6.80;3.10;;;23.40;1.00;;;;;;6275693;28;20237;-55
2022/08/02 08:01:58;;;;;;;3.73;2.53;;;23.10;1.00;;;;;;6273765;28;20320;-55
2022/08/02 08:05:01;;;;;;;4.50;3.10;;;23.00;1.00;;;;;;6276065;28;20248;-55
2022/08/02 08:08:05;;;;;;;4.33;2.40;;;23.00;1.00;;;;;;6281952;28;20237;-55
2022/08/02 08:11:08;;;;;;;2.50;2.30;;;23.10;1.00;;;;;;6283338;28;20356;-54
2022/08/02 08:14:12;;;;;;;3.10;2.90;;;23.10;1.00;;;;;;6275150;28;20719;-55
2022/08/02 08:17:19;;;;;;;4.93;2.70;;;23.10;1.00;;;;;;6289790;28;20233;-55
2022/08/02 08:20:22;;;;;;;2.50;2.30;;;23.10;1.00;;;;;;6276610;28;20414;-55
2022/08/02 08:23:25;;;;;;;3.77;2.83;;;23.10;1.00;;;;;;6288408;28;20798;-54
2022/08/02 08:26:28;;;;;;;7.67;3.07;;;23.20;1.00;;;;;;6287876;28;20221;-55
2022/08/02 08:29:32;;;;;;;4.33;2.63;;;23.30;1.00;;;;;;6282170;28;20229;-55
2022/08/02 08:32:35;;;;;;;3.57;3.27;;;23.50;1.00;;;;;;6273983;28;20756;-54
2022/08/02 08:35:38;;;;;;;4.07;2.73;;;23.40;1.00;;;;;;6286527;28;20300;-54
2022/08/02 08:38:41;;;;;;;5.77;2.77;;;23.40;1.00;;;;;;6271493;28;20403;-54
2022/08/02 08:41:44;;;;;;;2.53;2.43;;;23.40;1.00;;;;;;6276669;28;20233;-54
2022/08/02 08:44:50;;;;;;;5.10;2.80;;;23.20;1.00;;;;;;6281616;28;20239;-55
2022/08/02 08:48:00;;;;;;;3.77;2.83;;;23.10;1.00;;;;;;6267405;28;20226;-55
2022/08/02 08:51:10;;;;;;;4.50;2.60;;;23.10;1.00;;;;;;6288752;28;20243;-54
2022/08/02 08:54:16;;;;;;;4.20;2.57;;;23.30;1.00;;;;;;6296198;28;20253;-54
2022/08/02 08:57:21;;;;;;;4.93;2.90;;;23.40;1.00;;;;;;6277268;28;20233;-56
2022/08/02 09:00:26;;;;;;;3.87;2.73;;;23.50;1.00;;;;;;6287115;28;20391;-61
2022/08/02 09:03:29;;;;;;;5.20;2.77;;;23.40;1.00;;;;;;6296378;28;20307;-56
2022/08/02 09:06:35;;;;;;;5.83;3.07;;;23.40;1.00;;;;;;6292771;28;20316;-53
2022/08/02 09:09:39;;;;;;;3.97;3.27;;;23.50;1.00;;;;;;6290710;28;20959;-56
2022/08/02 09:12:42;;;;;;;2.80;2.60;;;23.50;1.00;;;;;;6285514;28;20594;-56
2022/08/02 09:15:54;;;;;;;3.13;2.40;;;23.70;1.00;;;;;;6282616;28;20320;-55
2022/08/02 09:18:58;;;;;;;3.53;2.80;;;23.70;1.00;;;;;;6284001;28;20233;-54
2022/08/02 09:22:05;;;;;;;3.87;2.37;;;23.90;1.00;;;;;;6276206;28;20233;-56
2022/08/02 09:25:15;;;;;;;2.70;2.50;;;23.90;1.00;;;;;;6273995;28;20384;-54
2022/08/02 09:28:18;;;;;;;4.83;2.50;;;23.90;1.00;;;;;;6293020;28;20228;-55
2022/08/02 09:31:24;;;;;;;2.83;2.57;;;23.70;1.00;;;;;;6287191;28;20680;-54
2022/08/02 09:34:43;;;;;;;2.33;2.13;;;23.50;1.00;;;;;;6289601;28;20362;-55
2022/08/02 09:37:46;;;;;;;2.20;1.90;;;23.60;1.00;;;;;;6280639;28;20563;-54
2022/08/02 09:40:50;;;;;;;2.57;2.37;;;23.80;1.00;;;;;;6283379;28;20352;-55
2022/08/02 09:43:54;;;;;;;4.97;2.17;;;23.80;1.00;;;;;;6271304;28;20723;-55
2022/08/02 09:47:16;;;;;;;2.77;2.47;;;23.90;1.00;;;;;;6278968;28;20290;-54
2022/08/02 09:50:19;;;;;;;3.23;2.43;;;24.20;1.00;;;;;;6274014;28;20305;-56
2022/08/02 09:53:23;;;;;;;3.60;2.60;;;24.40;1.00;;;;;;6271604;28;20375;-55
2022/08/02 09:56:28;;;;;;;2.27;2.17;;;24.40;1.00;;;;;;6272611;28;20243;-55
2022/08/02 09:59:37;;;;;;;7.03;3.00;;;24.50;1.00;;;;;;6287250;28;20747;-56
2022/08/02 10:03:05;;;;;;;2.97;2.60;;;24.50;1.00;;;;;;6291980;28;20288;-54
2022/08/02 10:06:08;;;;;;;5.30;2.80;;;24.70;1.00;;;;;;6277789;28;20237;-54
2022/08/02 10:09:13;;;;;;;2.60;2.30;;;24.90;1.00;;;;;;6305069;28;20260;-54
2022/08/02 10:12:16;;;;;;;2.50;2.40;;;25.10;1.00;;;;;;6284300;28;20255;-56
2022/08/02 10:15:19;;;;;;;2.77;2.53;;;25.10;1.00;;;;;;6284829;28;20725;-55
2022/08/02 10:18:30;;;;;;;5.03;2.50;;;25.40;1.00;;;;;;6285009;28;20384;-55
2022/08/02 10:21:47;;;;;;;2.30;2.20;;;25.30;1.00;;;;;;6282986;28;20238;-53
2022/08/02 10:24:51;;;;;;;4.10;2.60;;;25.00;1.00;;;;;;6282978;28;20866;-55
2022/08/02 10:27:55;;;;;;;2.50;2.30;;;25.00;1.00;;;;;;6278792;28;20372;-56
2022/08/02 10:31:09;;;;;;;2.40;2.07;;;25.30;1.00;;;;;;6278279;28;20263;-55
2022/08/02 10:34:18;;;;;;;2.93;2.73;;;25.60;1.00;;;;;;6289777;28;20234;-56
2022/08/02 10:37:22;;;;;;;2.87;2.60;;;25.60;1.00;;;;;;6279996;28;20286;-54
2022/08/02 10:40:42;;;;;;;2.57;2.30;;;25.70;1.00;;;;;;6285737;28;20332;-55
2022/08/02 10:43:49;;;;;;;3.87;2.30;;;25.90;1.00;;;;;;6302308;28;20222;-54
2022/08/02 10:46:52;;;;;;;2.90;2.50;;;25.90;1.00;;;;;;6282103;28;20229;-54
2022/08/02 10:49:58;;;;;;;2.83;2.60;;;25.50;1.00;;;;;;6292054;28;20301;-56
2022/08/02 10:53:20;;;;;;;2.60;2.40;;;25.30;1.00;;;;;;6291396;28;20244;-54
2022/08/02 10:56:47;;;;;;;4.03;2.47;;;25.20;1.00;;;;;;6275103;28;20315;-55
2022/08/02 10:59:52;;;;;;;2.50;2.40;;;25.40;1.00;;;;;;6272866;28;20324;-54
2022/08/02 11:02:55;;;;;;;2.70;2.50;;;25.50;1.00;;;;;;6284213;28;20233;-54
2022/08/02 11:06:03;;;;;;;5.27;3.20;;;25.40;1.00;;;;;;6277933;28;20313;-55
2022/08/02 11:09:36;;;;;;;2.80;2.60;;;25.30;1.00;;;;;;6286264;28;20302;-54
2022/08/02 11:12:59;;;;;;;3.97;2.60;;;25.40;1.00;;;;;;6168653;28;20224;-54
2022/08/02 11:16:04;;;;;;;3.03;2.83;;;25.50;1.00;;;;;;6263447;28;20235;-54
2022/08/02 11:19:13;;;;;;;2.93;2.73;;;25.70;1.00;;;;;;6291155;28;20259;-56
2022/08/02 11:22:18;;;;;;;2.60;2.50;;;25.50;1.00;;;;;;6276944;28;20312;-54
2022/08/02 11:25:34;;;;;;;2.80;2.60;;;25.40;1.00;;;;;;6282175;28;20233;-54
2022/08/02 11:28:58;;;;;;;2.80;2.40;;;25.40;1.00;;;;;;6284521;28;20618;-55
2022/08/02 11:32:02;;;;;;;3.53;3.20;;;25.50;1.00;;;;;;6281558;28;20229;-55
2022/08/02 11:35:06;;;;;;;2.90;2.70;;;25.60;1.00;;;;;;6282731;28;20237;-54
2022/08/02 11:38:22;;;;;;;2.57;2.43;;;25.70;1.00;;;;;;6280383;28;20229;-54
2022/08/02 11:41:25;;;;;;;2.57;2.37;;;25.80;1.00;;;;;;6283744;28;20236;-54
2022/08/02 11:44:48;;;;;;;3.43;3.17;;;25.80;1.00;;;;;;6287605;28;20576;-54
2022/08/02 11:47:52;;;;;;;4.97;3.03;;;25.90;1.00;;;;;;6281063;28;20711;-54
2022/08/02 11:51:10;;;;;;;2.80;2.60;;;26.10;1.00;;;;;;6272452;28;20805;-55
2022/08/02 11:54:23;;;;;;;2.93;2.63;;;26.20;1.00;;;;;;6277934;28;20606;-55
2022/08/02 11:57:26;;;;;;;3.17;2.87;;;26.50;1.00;;;;;;6287520;28;20356;-55
2022/08/02 12:00:29;;;;;;;8.37;2.70;;;26.50;1.00;;;;;;6283937;28;20690;-55
2022/08/02 12:03:37;;;;;;;4.60;2.83;;;26.60;1.00;;;;;;6290059;28;20882;-54
2022/08/02 12:06:40;;;;;;;2.57;2.37;;;26.40;1.00;;;;;;6304398;28;20229;-56
2022/08/02 12:09:44;;;;;;;2.77;2.67;;;26.40;1.00;;;;;;6291887;28;20309;-55
2022/08/02 12:12:49;;;;;;;3.03;2.50;;;26.60;1.00;;;;;;6279933;28;20745;-56
2022/08/02 12:19:17;;;;;;;6.07;3.13;;;26.50;1.00;;;;;;6286003;28;20240;-56
2022/08/02 12:19:18;;;;;;;3.40;2.50;;;26.50;1.00;;;;;;6298569;28;20251;-55
2022/08/02 12:22:25;;;;;;;4.73;2.93;;;26.50;1.00;;;;;;6280374;28;20614;-55
2022/08/02 12:25:31;;;;;;;2.87;2.60;;;26.60;1.00;;;;;;6291848;28;20627;-54
2022/08/02 12:28:38;;;;;;;6.73;2.83;;;26.80;1.00;;;;;;6284570;28;20606;-54
2022/08/02 12:31:44;;;;;;;2.63;2.43;;;26.80;1.00;;;;;;6292209;28;20290;-54
2022/08/02 12:35:10;;;;;;;2.70;2.33;;;26.80;1.00;;;;;;6291443;28;20616;-54
2022/08/02 12:38:14;;;;;;;3.30;2.63;;;26.90;1.00;;;;;;6292353;28;20343;-55
2022/08/02 12:41:18;;;;;;;2.70;2.50;;;26.90;1.00;;;;;;6278828;28;20891;-55
2022/08/02 12:44:34;;;;;;;2.67;2.47;;;27.00;1.00;;;;;;6285420;28;20228;-54
2022/08/02 12:47:45;;;;;;;3.20;3.00;;;26.90;1.00;;;;;;6286850;28;20240;-55
2022/08/02 12:50:48;;;;;;;2.63;2.53;;;27.00;1.00;;;;;;6284719;28;20234;-55
2022/08/02 12:53:53;;;;;;;2.93;2.60;;;26.90;1.00;;;;;;6298262;28;20790;-54
2022/08/02 12:57:12;;;;;;;3.17;2.87;;;27.10;1.00;;;;;;6281208;28;20249;-54
2022/08/02 13:00:23;;;;;;;5.30;2.83;;;27.20;1.00;;;;;;6285918;28;20230;-54
2022/08/02 13:03:27;;;;;;;4.60;2.77;;;27.30;1.00;;;;;;6276737;28;20351;-56
2022/08/02 13:06:50;;;;;;;3.87;3.03;;;27.20;1.00;;;;;;6277632;28;20234;-55
2022/08/02 13:09:53;;;;;;;2.67;2.57;;;27.20;1.00;;;;;;6293323;28;20320;-55
2022/08/02 13:13:06;;;;;;;3.00;2.80;;;27.20;1.00;;;;;;6289352;28;20239;-55
2022/08/02 13:16:09;;;;;;;5.67;2.47;;;27.30;1.00;;;;;;6299579;28;20734;-55
2022/08/02 13:19:14;;;;;;;2.30;2.10;;;27.40;1.00;;;;;;6286445;28;20758;-54
2022/08/02 13:22:17;;;;;;;2.93;2.70;;;27.50;1.00;;;;;;6282414;28;20733;-54
2022/08/02 13:25:21;;;;;;;3.50;3.20;;;27.70;1.00;;;;;;6290451;28;20248;-55
2022/08/02 13:28:26;;;;;;;6.77;3.00;;;27.70;1.00;;;;;;6285990;28;20706;-55
2022/08/02 13:31:32;;;;;;;4.90;2.90;;;27.60;1.00;;;;;;6279578;28;20371;-55
2022/08/02 13:34:38;;;;;;;3.17;2.90;;;27.60;1.00;;;;;;6298444;28;20317;-54
2022/08/02 13:37:43;;;;;;;4.03;2.73;;;27.60;1.00;;;;;;6285293;28;20259;-54
2022/08/02 13:44:08;;;;;;;3.03;2.83;;;27.80;1.00;;;;;;6278352;28;20263;-56
2022/08/02 13:47:12;;;;;;;2.80;2.57;;;27.80;1.00;;;;;;6254963;28;20312;-56
2022/08/02 13:50:29;;;;;;;2.60;2.40;;;28.00;1.00;;;;;;6289405;28;20237;-55
2022/08/02 13:53:32;;;;;;;2.70;2.50;;;27.90;1.00;;;;;;6284587;28;20713;-54
2022/08/02 13:56:35;;;;;;;3.00;2.80;;;27.90;1.00;;;;;;6280058;28;20740;-55
2022/08/02 13:59:40;;;;;;;6.03;3.07;;;27.90;1.00;;;;;;6282112;28;20240;-55
2022/08/02 14:03:00;;;;;;;2.67;2.47;;;28.10;1.00;;;;;;6291502;28;20312;-55
2022/08/02 14:06:05;;;;;;;2.50;2.30;;;28.20;1.00;;;;;;6286266;28;20383;-55
2022/08/02 14:09:08;;;;;;;2.97;2.63;;;28.30;1.00;;;;;;6278205;28;20280;-57
2022/08/02 14:12:17;;;;;;;2.73;2.63;;;28.40;1.00;;;;;;6276815;28;20267;-56
2022/08/02 14:15:21;;;;;;;2.63;2.50;;;28.50;1.00;;;;;;6283079;28;20283;-54
2022/08/02 14:18:27;;;;;;;2.77;2.47;;;28.60;1.00;;;;;;6293709;28;20652;-54
2022/08/02 14:21:30;;;;;;;2.63;2.53;;;28.60;1.00;;;;;;6284461;28;20282;-56
2022/08/02 14:24:49;;;;;;;4.40;2.67;;;28.50;1.00;;;;;;6290364;28;20229;-55
2022/08/02 14:27:52;;;;;;;6.47;2.70;;;28.50;1.00;;;;;;6285047;28;20274;-54
2022/08/02 14:30:56;;;;;;;3.13;2.83;;;28.50;1.00;;;;;;6282897;28;20722;-55
2022/08/02 14:33:59;;;;;;;3.10;2.90;;;28.40;1.00;;;;;;6292093;28;20320;-55
2022/08/02 14:37:02;;;;;;;3.20;2.90;;;28.50;1.00;;;;;;6283929;28;20229;-54
2022/08/02 14:40:06;;;;;;;5.40;2.63;;;28.50;1.00;;;;;;6286389;28;20320;-55
2022/08/02 14:46:51;;;;;;;2.93;2.80;;;28.30;1.00;;;;;;6284807;28;20310;-59
2022/08/02 14:49:54;;;;;;;3.13;2.73;;;28.20;1.00;;;;;;6281863;28;20403;-55
2022/08/02 14:52:57;;;;;;;6.80;2.27;;;28.20;1.00;;;;;;6290305;28;20256;-56
2022/08/02 14:56:00;;;;;;;2.43;2.23;;;28.40;1.00;;;;;;6285156;28;20244;-56
2022/08/02 14:59:04;;;;;;;2.90;2.80;;;28.60;1.00;;;;;;6276275;28;20407;-54
2022/08/02 15:02:09;;;;;;;2.57;2.47;;;28.90;1.00;;;;;;6281848;28;20384;-55
2022/08/02 15:05:15;;;;;;;2.83;2.63;;;28.90;1.00;;;;;;6283298;28;20224;-54
2022/08/02 15:08:18;;;;;;;5.33;2.53;;;29.00;1.00;;;;;;6286295;28;20329;-54
2022/08/02 15:11:21;;;;;;;2.58;2.38;;;29.00;1.00;;;;;;6286096;28;20714;-56
2022/08/02 15:14:24;;;;;;;4.63;2.33;;;29.00;1.00;;;;;;6276544;28;20245;-55
2022/08/02 15:17:30;;;;;;;3.13;2.92;;;29.00;1.00;;;;;;6286502;28;20241;-55
2022/08/02 15:20:33;;;;;;;4.07;2.60;;;29.00;1.00;;;;;;6281260;28;20312;-55
2022/08/02 15:23:36;;;;;;;6.63;2.90;;;29.00;1.00;;;;;;6293926;28;20230;-55
2022/08/02 15:26:41;;;;;;;3.10;2.80;;;29.00;1.00;;;;;;6277424;28;20703;-57
2022/08/02 15:29:46;;;;;;;3.03;2.72;;;29.00;1.00;;;;;;6281312;28;20291;-55
2022/08/02 15:32:50;;;;;;;2.65;2.55;;;28.90;1.00;;;;;;6284136;28;20766;-55
2022/08/02 15:35:55;;;;;;;2.90;2.50;;;28.90;1.00;;;;;;6288785;28;20464;-55
2022/08/02 15:38:58;;;;;;;5.03;2.88;;;28.90;1.00;;;;;;6291809;28;20733;-55
2022/08/02 15:42:01;;;;;;;2.40;2.30;;;28.90;1.00;;;;;;6290566;28;20260;-55
2022/08/02 15:45:05;;;;;;;4.35;3.03;;;28.90;1.00;;;;;;6278543;28;20283;-55
2022/08/02 15:48:09;;;;;;;3.03;2.60;;;28.90;1.00;;;;;;6290164;28;20633;-56
2022/08/02 15:51:12;;;;;;;2.85;2.50;;;29.00;1.00;;;;;;6287334;28;20275;-56
2022/08/02 15:54:15;;;;;;;5.27;2.40;;;28.90;1.00;;;;;;6296620;28;20311;-57
2022/08/02 15:57:18;;;;;;;3.77;2.73;;;28.90;1.00;;;;;;6296270;28;20477;-56
2022/08/02 16:00:21;;;;;;;3.23;2.30;;;28.90;1.00;;;;;;6286573;28;20392;-55
2022/08/02 16:03:25;;;;;;;2.85;2.58;;;28.90;1.00;;;;;;6295715;28;20806;-55
2022/08/02 16:06:28;;;;;;;2.90;2.63;;;28.90;1.00;;;;;;6285972;28;20237;-55
2022/08/02 16:09:31;;;;;;;2.97;2.57;;;28.80;1.00;;;;;;6291977;28;20782;-54
2022/08/02 16:12:34;;;;;;;3.10;2.90;;;28.60;1.00;;;;;;6293196;28;20326;-55
2022/08/02 16:15:37;;;;;;;3.13;2.92;;;28.50;1.00;;;;;;6292894;28;20231;-55
2022/08/02 16:18:41;;;;;;;2.93;2.73;;;28.40;1.00;;;;;;6292091;28;20339;-56
2022/08/02 16:21:44;;;;;;;2.90;2.70;;;28.40;1.00;;;;;;6288678;28;20229;-54
2022/08/02 16:24:47;;;;;;;3.83;2.20;;;28.20;1.00;;;;;;6294451;28;20237;-54
2022/08/02 16:27:50;;;;;;;3.17;2.97;;;28.20;1.00;;;;;;6291488;28;20386;-55
2022/08/02 16:31:09;;;;;;;2.33;2.27;;;28.10;1.00;;;;;;6286995;28;20237;-56
2022/08/02 16:34:15;;;;;;;2.63;2.53;;;28.10;1.00;;;;;;6251995;28;20476;-56